createdAt,value
2018-06-13T00:01:57.743Z,15.60
2018-06-13T00:04:27.221Z,15.65
2018-06-13T00:06:56.429Z,15.63
2018-06-13T00:09:25.456Z,15.61
2018-06-13T00:11:54.514Z,15.66
2018-06-13T00:14:23.563Z,15.49
2018-06-13T00:16:52.861Z,15.44
2018-06-13T00:19:22.609Z,15.42
2018-06-13T00:21:52.051Z,15.43
2018-06-13T00:24:21.107Z,15.40
2018-06-13T00:26:50.152Z,15.44
2018-06-13T00:29:20.114Z,15.46
2018-06-13T00:31:49.372Z,15.47
2018-06-13T00:34:18.703Z,15.52
2018-06-13T00:36:47.722Z,15.55
2018-06-13T00:39:17.070Z,15.56
2018-06-13T00:41:46.920Z,15.62
2018-06-13T00:44:15.983Z,15.59
2018-06-13T00:46:45.010Z,15.46
2018-06-13T00:49:14.040Z,15.33
2018-06-13T00:51:43.099Z,15.33
2018-06-13T00:54:12.176Z,15.36
2018-06-13T00:56:41.528Z,15.38
2018-06-13T00:59:10.612Z,15.38
2018-06-13T01:01:39.641Z,15.46
2018-06-13T01:04:09.343Z,15.55
2018-06-13T01:06:38.365Z,15.60
2018-06-13T01:09:08.523Z,15.58
2018-06-13T01:11:37.535Z,15.60
2018-06-13T01:14:06.804Z,15.65
2018-06-13T01:16:35.854Z,15.58
2018-06-13T01:19:04.922Z,15.61
2018-06-13T01:21:34.029Z,15.55
2018-06-13T01:24:03.435Z,15.56
2018-06-13T01:26:32.885Z,15.66
2018-06-13T01:29:01.893Z,15.58
2018-06-13T01:31:31.049Z,15.59
2018-06-13T01:34:00.086Z,15.57
2018-06-13T01:36:29.685Z,15.53
2018-06-13T01:38:58.735Z,15.57
2018-06-13T01:41:27.823Z,15.55
2018-06-13T01:43:56.863Z,15.56
2018-06-13T01:46:25.903Z,15.48
2018-06-13T01:48:55.588Z,15.52
2018-06-13T01:51:24.616Z,15.45
2018-06-13T01:53:53.657Z,15.42
2018-06-13T01:56:22.759Z,15.36
2018-06-13T01:58:51.815Z,15.34
2018-06-13T02:01:21.540Z,15.28
2018-06-13T02:03:50.571Z,15.16
2018-06-13T02:06:20.248Z,15.08
2018-06-13T02:08:49.483Z,15.02
2018-06-13T02:11:18.581Z,15.06
2018-06-13T02:13:47.648Z,15.05
2018-06-13T02:16:16.765Z,15.03
2018-06-13T02:18:45.839Z,15.08
2018-06-13T02:21:14.911Z,15.11
2018-06-13T02:23:43.954Z,15.17
2018-06-13T02:26:13.118Z,15.23
2018-06-13T02:28:42.189Z,15.23
2018-06-13T02:31:11.329Z,15.25
2018-06-13T02:33:40.363Z,15.30
2018-06-13T02:36:09.472Z,15.34
2018-06-13T02:38:38.483Z,15.19
2018-06-13T02:41:07.518Z,15.20
2018-06-13T02:43:36.534Z,15.21
2018-06-13T02:46:06.061Z,15.18
2018-06-13T02:48:35.090Z,15.09
2018-06-13T02:51:04.452Z,15.11
2018-06-13T02:53:33.457Z,15.07
2018-06-13T02:56:03.574Z,15.11
2018-06-13T02:58:32.590Z,15.13
2018-06-13T03:14:01.832Z,14.91
2018-06-13T03:16:30.925Z,14.90
2018-06-13T03:19:00.010Z,14.95
2018-06-13T03:21:29.051Z,14.98
2018-06-13T03:23:58.946Z,15.01
2018-06-13T03:26:27.964Z,15.02
2018-06-13T03:28:57.133Z,14.94
2018-06-13T03:31:31.668Z,14.92
2018-06-13T03:34:00.735Z,14.87
2018-06-13T03:36:29.760Z,14.94
2018-06-13T03:38:58.886Z,14.97
2018-06-13T03:41:27.931Z,14.95
2018-06-13T03:43:57.556Z,15.04
2018-06-13T03:46:26.593Z,15.06
2018-06-13T03:48:55.956Z,15.17
2018-06-13T03:51:25.368Z,15.11
2018-06-13T03:53:54.454Z,15.16
2018-06-13T03:56:23.518Z,15.09
2018-06-13T03:58:52.578Z,15.10
2018-06-13T04:01:21.610Z,15.10
2018-06-13T04:03:50.636Z,15.14
2018-06-13T04:06:21.224Z,15.25
2018-06-13T04:08:50.278Z,15.28
2018-06-13T04:11:19.282Z,15.20
2018-06-13T04:13:48.365Z,15.21
2018-06-13T04:16:19.737Z,15.24
2018-06-13T04:18:48.746Z,15.28
2018-06-13T04:21:18.688Z,15.33
2018-06-13T04:23:47.818Z,15.36
2018-06-13T04:26:16.828Z,15.35
2018-06-13T04:28:45.897Z,15.39
2018-06-13T04:31:15.178Z,15.38
2018-06-13T04:33:44.684Z,15.42
2018-06-13T04:36:14.064Z,15.40
2018-06-13T04:38:43.424Z,15.48
2018-06-13T04:41:12.548Z,15.44
2018-06-13T04:43:42.146Z,15.39
2018-06-13T04:46:11.492Z,15.43
2018-06-13T04:48:40.567Z,15.39
2018-06-13T04:51:09.649Z,15.42
2018-06-13T04:53:38.700Z,15.42
2018-06-13T04:56:09.230Z,15.35
2018-06-13T04:58:38.422Z,15.38
2018-06-13T05:01:07.522Z,15.37
2018-06-13T05:03:36.827Z,15.40
2018-06-13T05:06:06.108Z,15.44
2018-06-13T05:08:35.299Z,15.50
2018-06-13T05:11:04.339Z,15.55
2018-06-13T05:13:33.444Z,15.58
2018-06-13T05:16:02.488Z,15.59
2018-06-13T05:18:31.526Z,15.56
2018-06-13T05:21:00.585Z,15.57
2018-06-13T05:23:29.617Z,15.56
2018-06-13T05:25:58.658Z,15.57
2018-06-13T05:28:27.703Z,15.64
2018-06-13T05:30:57.098Z,15.60
2018-06-13T05:33:26.148Z,15.57
2018-06-13T05:35:55.194Z,15.61
2018-06-13T05:38:24.211Z,15.62
2018-06-13T05:40:58.672Z,15.61
2018-06-13T05:43:27.746Z,15.53
2018-06-13T05:45:56.818Z,15.65
2018-06-13T05:48:25.884Z,15.72
2018-06-13T05:50:55.608Z,15.79
2018-06-13T05:53:24.674Z,15.71
2018-06-13T05:55:53.820Z,15.74
2018-06-13T05:58:22.880Z,15.81
2018-06-13T06:00:52.008Z,15.60
2018-06-13T06:03:21.052Z,15.70
2018-06-13T06:05:50.134Z,15.76
2018-06-13T06:08:19.190Z,15.87
2018-06-13T06:10:48.238Z,15.93
2018-06-13T06:13:17.447Z,15.83
2018-06-13T06:15:46.498Z,15.91
2018-06-13T06:18:15.597Z,15.93
2018-06-13T06:20:44.597Z,15.85
2018-06-13T06:23:14.492Z,15.79
2018-06-13T06:25:43.576Z,15.61
2018-06-13T06:28:12.698Z,15.66
2018-06-13T06:30:41.765Z,15.67
2018-06-13T06:33:10.862Z,15.68
2018-06-13T06:35:39.890Z,15.71
2018-06-13T06:38:08.970Z,15.70
2018-06-13T06:40:38.087Z,15.70
2018-06-13T06:43:07.109Z,15.74
2018-06-13T06:45:36.599Z,15.85
2018-06-13T06:48:05.809Z,15.90
2018-06-13T06:50:34.881Z,15.97
2018-06-13T06:53:03.950Z,15.91
2018-06-13T06:55:33.041Z,15.86
2018-06-13T06:58:02.095Z,15.86
2018-06-13T07:00:31.465Z,15.91
2018-06-13T07:03:00.495Z,15.87
2018-06-13T07:05:29.605Z,15.93
2018-06-13T07:07:58.705Z,15.98
2018-06-13T07:10:27.741Z,15.99
2018-06-13T07:12:56.785Z,15.96
2018-06-13T07:15:25.821Z,16.00
2018-06-13T07:17:55.973Z,15.99
2018-06-13T07:20:25.015Z,15.90
2018-06-13T07:22:54.209Z,15.97
2018-06-13T07:25:23.215Z,15.96
2018-06-13T07:27:52.265Z,15.95
2018-06-13T07:30:21.345Z,15.95
2018-06-13T07:32:50.407Z,15.95
2018-06-13T07:35:20.176Z,15.90
2018-06-13T07:37:49.244Z,15.90
2018-06-13T07:40:19.496Z,15.95
2018-06-13T07:42:49.283Z,16.04
2018-06-13T07:45:18.957Z,16.09
2018-06-13T07:47:47.955Z,16.15
2018-06-13T07:50:17.039Z,16.19
2018-06-13T07:52:46.128Z,16.14
2018-06-13T07:55:15.289Z,16.12
2018-06-13T07:57:44.270Z,16.11
2018-06-13T08:00:13.551Z,16.14
2018-06-13T08:02:42.748Z,16.12
2018-06-13T08:05:11.849Z,16.14
2018-06-13T08:07:40.933Z,16.15
2018-06-13T08:10:10.010Z,16.13
2018-06-13T08:12:39.082Z,16.13
2018-06-13T08:15:08.153Z,16.22
2018-06-13T08:17:37.215Z,16.29
2018-06-13T08:20:06.311Z,16.32
2018-06-13T08:22:35.400Z,16.46
2018-06-13T08:25:04.565Z,16.51
2018-06-13T08:27:33.622Z,16.46
2018-06-13T08:30:02.722Z,16.51
2018-06-13T08:32:31.769Z,16.42
2018-06-13T08:35:00.777Z,16.30
2018-06-13T08:37:29.925Z,16.25
2018-06-13T08:39:59.025Z,16.31
2018-06-13T08:42:28.129Z,16.33
2018-06-13T08:44:57.593Z,16.28
2018-06-13T08:47:26.693Z,16.34
2018-06-13T08:49:55.769Z,16.33
2018-06-13T08:52:25.410Z,16.51
2018-06-13T08:54:54.813Z,16.54
2018-06-13T08:57:23.905Z,16.68
2018-06-13T08:59:53.399Z,16.71
2018-06-13T09:02:27.461Z,16.61
2018-06-13T09:04:57.191Z,16.57
2018-06-13T09:07:26.371Z,16.65
2018-06-13T09:09:55.493Z,16.62
2018-06-13T09:12:24.637Z,16.60
2018-06-13T09:14:53.673Z,16.80
2018-06-13T09:17:22.697Z,16.81
2018-06-13T09:19:52.045Z,16.92
2018-06-13T09:22:21.067Z,17.14
2018-06-13T09:24:50.351Z,17.25
2018-06-13T09:27:19.433Z,17.19
2018-06-13T09:29:48.528Z,17.17
2018-06-13T09:32:17.563Z,17.28
2018-06-13T09:34:46.649Z,17.12
2018-06-13T09:37:15.758Z,16.89
2018-06-13T09:39:44.773Z,16.84
2018-06-13T09:42:14.838Z,16.92
2018-06-13T09:44:43.981Z,16.85
2018-06-13T09:47:15.129Z,16.99
2018-06-13T09:49:42.601Z,17.16
2018-06-13T10:05:12.542Z,17.14
2018-06-13T10:07:42.357Z,17.32
2018-06-13T10:10:11.754Z,17.61
2018-06-13T10:12:40.864Z,17.75
2018-06-13T10:28:11.152Z,17.20
2018-06-13T10:30:40.339Z,17.30
2018-06-13T10:33:09.619Z,17.37
2018-06-13T10:35:38.866Z,17.39
2018-06-13T10:38:08.685Z,17.37
2018-06-13T10:40:37.794Z,17.56
2018-06-13T10:43:08.313Z,17.53
2018-06-13T10:45:37.631Z,17.62
2018-06-13T10:48:08.263Z,17.68
2018-06-13T10:50:38.079Z,17.68
2018-06-13T10:53:07.537Z,17.46
2018-06-13T10:55:38.533Z,17.50
2018-06-13T10:58:07.597Z,17.30
2018-06-13T11:00:36.757Z,17.22
2018-06-13T11:03:05.929Z,17.08
2018-06-13T11:05:35.057Z,16.97
2018-06-13T11:08:04.137Z,17.21
2018-06-13T11:10:33.235Z,17.46
2018-06-13T11:13:02.242Z,17.51
2018-06-13T11:15:31.252Z,17.41
2018-06-13T11:18:00.563Z,17.39
2018-06-13T11:20:29.839Z,17.49
2018-06-13T11:22:59.133Z,17.54
2018-06-13T11:25:28.361Z,17.57
2018-06-13T11:27:57.424Z,17.52
2018-06-13T11:30:26.519Z,17.63
2018-06-13T11:32:55.750Z,17.59
2018-06-13T11:35:24.755Z,17.56
2018-06-13T11:37:54.990Z,17.49
2018-06-13T11:40:24.283Z,17.53
2018-06-13T11:42:53.351Z,17.67
2018-06-13T11:45:22.645Z,17.78
2018-06-13T11:47:52.024Z,17.24
2018-06-13T11:50:21.160Z,17.42
2018-06-13T11:52:50.721Z,17.59
2018-06-13T11:55:19.829Z,17.77
2018-06-13T11:57:48.831Z,17.91
2018-06-13T12:00:17.999Z,17.72
2018-06-13T12:02:46.975Z,17.80
2018-06-13T12:05:16.065Z,17.82
2018-06-13T12:07:45.090Z,17.70
2018-06-13T12:10:14.131Z,17.35
2018-06-13T12:12:43.146Z,17.21
2018-06-13T12:15:12.357Z,17.45
2018-06-13T12:17:41.370Z,17.56
2018-06-13T12:20:10.372Z,17.70
2018-06-13T12:22:39.464Z,17.79
2018-06-13T12:25:08.505Z,17.68
2018-06-13T12:27:37.643Z,17.54
2018-06-13T12:30:07.055Z,17.63
2018-06-13T12:32:37.483Z,17.58
2018-06-13T12:35:06.963Z,17.63
2018-06-13T12:37:36.057Z,17.88
2018-06-13T12:40:05.261Z,18.07
2018-06-13T12:42:34.310Z,18.00
2018-06-13T12:45:03.346Z,18.03
2018-06-13T12:47:32.398Z,17.97
2018-06-13T12:50:01.376Z,17.94
2018-06-13T12:52:30.408Z,18.06
2018-06-13T12:54:59.476Z,18.16
2018-06-13T12:57:28.505Z,18.14
2018-06-13T12:59:57.722Z,18.16
2018-06-13T13:02:27.040Z,18.15
2018-06-13T13:04:56.088Z,18.25
2018-06-13T13:07:25.141Z,18.24
2018-06-13T13:09:54.589Z,18.46
2018-06-13T13:12:23.611Z,18.45
2018-06-13T13:14:52.636Z,18.51
2018-06-13T13:17:21.672Z,18.49
2018-06-13T13:19:50.704Z,18.38
2018-06-13T13:22:19.719Z,18.38
2018-06-13T13:24:48.743Z,18.40
2018-06-13T13:27:17.794Z,18.29
2018-06-13T13:29:46.825Z,18.26
2018-06-13T13:32:15.887Z,18.08
2018-06-13T13:34:45.252Z,17.96
2018-06-13T13:37:14.317Z,18.12
2018-06-13T13:39:43.679Z,18.21
2018-06-13T13:42:12.977Z,18.27
2018-06-13T13:44:42.339Z,18.13
2018-06-13T13:47:11.388Z,18.21
2018-06-13T13:49:40.384Z,18.30
2018-06-13T13:52:09.446Z,18.44
2018-06-13T13:54:38.720Z,18.20
2018-06-13T13:57:07.736Z,17.84
2018-06-13T13:59:36.924Z,17.82
2018-06-13T14:02:05.953Z,18.02
2018-06-13T14:04:34.968Z,18.14
2018-06-13T14:07:04.104Z,18.06
2018-06-13T14:09:33.310Z,18.12
2018-06-13T14:12:02.960Z,18.20
2018-06-13T14:14:31.986Z,18.34
2018-06-13T14:17:01.042Z,18.33
2018-06-13T14:19:30.062Z,18.35
2018-06-13T14:21:59.138Z,18.40
2018-06-13T14:24:28.448Z,18.48
2018-06-13T14:26:57.457Z,18.26
2018-06-13T14:29:26.500Z,17.99
2018-06-13T14:32:01.192Z,18.09
2018-06-13T14:34:30.942Z,18.22
2018-06-13T14:36:59.984Z,18.35
2018-06-13T14:39:29.896Z,18.41
2018-06-13T14:41:58.901Z,18.56
2018-06-13T14:44:28.344Z,18.55
2018-06-13T14:46:57.360Z,18.50
2018-06-13T14:49:26.616Z,18.49
2018-06-13T14:51:55.970Z,18.57
2018-06-13T14:54:24.980Z,18.57
2018-06-13T14:56:54.044Z,18.64
2018-06-13T14:59:23.033Z,18.58
2018-06-13T15:01:52.077Z,18.61
2018-06-13T15:04:25.287Z,18.64
2018-06-13T15:06:54.418Z,18.62
2018-06-13T15:09:23.490Z,18.69
2018-06-13T15:11:52.524Z,18.79
2018-06-13T15:14:21.540Z,18.78
2018-06-13T15:16:50.948Z,18.73
2018-06-13T15:19:20.024Z,18.75
2018-06-13T15:21:49.198Z,18.60
2018-06-13T15:24:18.390Z,18.59
2018-06-13T15:26:47.480Z,18.69
2018-06-13T15:29:16.519Z,18.72
2018-06-13T15:31:45.580Z,18.72
2018-06-13T15:34:14.594Z,18.71
2018-06-13T15:36:43.689Z,18.61
2018-06-13T15:39:14.158Z,18.65
2018-06-13T15:41:43.977Z,18.57
2018-06-13T15:44:13.032Z,18.58
2018-06-13T15:46:42.110Z,18.73
2018-06-13T15:49:11.164Z,18.71
2018-06-13T15:51:46.924Z,18.76
2018-06-13T15:54:16.084Z,18.67
2018-06-13T15:56:45.128Z,18.71
2018-06-13T15:59:14.200Z,18.73
2018-06-13T16:01:43.306Z,18.69
2018-06-13T16:04:12.292Z,18.79
2018-06-13T16:06:41.684Z,18.58
2018-06-13T16:09:11.808Z,18.20
2018-06-13T16:11:45.815Z,18.21
2018-06-13T16:14:15.049Z,18.30
2018-06-13T16:16:44.020Z,18.44
2018-06-13T16:19:13.072Z,18.45
2018-06-13T16:21:42.165Z,18.57
2018-06-13T16:24:11.194Z,18.62
2018-06-13T16:26:40.197Z,18.63
2018-06-13T16:29:09.373Z,18.48
2018-06-13T16:31:38.464Z,18.48
2018-06-13T16:34:07.516Z,18.47
2018-06-13T16:49:36.557Z,18.57
2018-06-13T16:52:16.890Z,18.66
2018-06-13T16:55:02.017Z,18.65
2018-06-13T16:57:31.023Z,18.60
2018-06-13T17:00:00.067Z,18.58
2018-06-13T17:02:29.097Z,18.66
2018-06-13T17:04:58.142Z,18.71
2018-06-13T17:07:27.409Z,18.68
2018-06-13T17:09:58.035Z,18.66
2018-06-13T17:12:27.017Z,18.74
2018-06-13T17:14:56.750Z,18.74
2018-06-13T17:17:26.545Z,18.68
2018-06-13T17:19:55.573Z,18.61
2018-06-13T17:22:24.592Z,18.58
2018-06-13T17:37:54.146Z,18.40
2018-06-13T17:40:23.153Z,18.40
2018-06-13T17:42:52.285Z,18.47
2018-06-13T17:45:21.296Z,18.50
2018-06-13T17:47:50.425Z,18.49
2018-06-13T17:50:19.842Z,18.38
2018-06-13T17:52:48.865Z,18.46
2018-06-13T17:55:17.857Z,18.48
2018-06-13T17:57:46.910Z,18.53
2018-06-13T18:00:15.959Z,18.62
2018-06-13T18:02:44.993Z,18.64
2018-06-13T18:05:14.168Z,18.63
2018-06-13T18:07:43.271Z,18.57
2018-06-13T18:10:12.325Z,18.50
2018-06-13T18:12:41.358Z,18.52
2018-06-13T18:15:10.402Z,18.47
2018-06-13T18:17:39.961Z,18.49
2018-06-13T18:20:09.117Z,18.52
2018-06-13T18:22:38.121Z,18.55
2018-06-13T18:25:07.127Z,18.50
2018-06-13T18:27:36.173Z,18.50
2018-06-13T18:30:05.504Z,18.57
2018-06-13T18:32:34.516Z,18.53
2018-06-13T18:35:03.658Z,18.58
2018-06-13T18:37:32.714Z,18.52
2018-06-13T18:40:01.768Z,18.53
2018-06-13T18:42:31.125Z,18.51
2018-06-13T18:45:01.179Z,18.58
2018-06-13T18:47:30.308Z,18.58
2018-06-13T18:49:59.321Z,18.47
2018-06-13T18:52:28.320Z,18.47
2018-06-13T18:54:57.612Z,18.51
2018-06-13T18:57:26.720Z,18.50
2018-06-13T18:59:55.716Z,18.48
2018-06-13T19:02:24.712Z,18.53
2018-06-13T19:04:53.790Z,18.54
2018-06-13T19:07:22.806Z,18.55
2018-06-13T19:09:51.854Z,18.50
2018-06-13T19:12:20.950Z,18.47
2018-06-13T19:14:49.969Z,18.47
2018-06-13T19:17:18.983Z,18.40
2018-06-13T19:19:48.156Z,18.44
2018-06-13T19:22:17.160Z,18.40
2018-06-13T19:24:46.192Z,18.39
2018-06-13T19:27:15.218Z,18.37
2018-06-13T19:29:45.201Z,18.36
2018-06-13T19:32:14.689Z,18.41
2018-06-13T19:34:43.770Z,18.31
2018-06-13T19:37:12.786Z,18.27
2018-06-13T19:39:43.074Z,18.26
2018-06-13T19:42:12.602Z,18.23
2018-06-13T19:44:41.887Z,18.26
2018-06-13T19:47:16.263Z,18.22
2018-06-13T19:49:45.618Z,18.19
2018-06-13T19:52:14.888Z,18.13
2018-06-13T19:54:49.745Z,18.19
2018-06-13T19:57:18.804Z,18.09
2018-06-13T19:59:47.872Z,18.11
2018-06-13T20:02:16.872Z,18.13
2018-06-13T20:04:52.228Z,18.07
2018-06-13T20:07:21.401Z,18.05
2018-06-13T20:09:50.427Z,18.09
2018-06-13T20:12:55.849Z,18.07
2018-06-13T20:15:30.288Z,18.11
2018-06-13T20:19:04.022Z,18.12
2018-06-13T20:21:33.163Z,18.06
2018-06-13T20:24:02.154Z,17.96
2018-06-13T20:26:36.532Z,17.84
2018-06-13T20:30:13.137Z,17.77
2018-06-13T20:32:42.310Z,17.76
2018-06-13T20:35:11.328Z,17.67
2018-06-13T20:37:40.478Z,17.70
2018-06-13T20:40:09.688Z,17.65
2018-06-13T20:42:38.712Z,17.72
2018-06-13T20:45:07.838Z,17.64
2018-06-13T20:47:36.887Z,17.53
2018-06-13T20:50:06.110Z,17.54
2018-06-13T20:52:35.150Z,17.54
2018-06-13T20:55:04.284Z,17.61
2018-06-13T20:57:33.378Z,17.69
2018-06-13T21:00:02.482Z,17.65
2018-06-13T21:02:31.546Z,17.75
2018-06-13T21:05:00.590Z,17.82
2018-06-13T21:07:35.316Z,17.76
2018-06-13T21:10:04.481Z,17.74
2018-06-13T21:12:33.570Z,17.74
2018-06-13T21:15:02.688Z,17.77
2018-06-13T21:17:31.712Z,17.62
2018-06-13T21:20:00.773Z,17.68
2018-06-13T21:22:29.924Z,17.62
2018-06-13T21:24:59.224Z,17.52
2018-06-13T21:27:28.294Z,17.55
2018-06-13T21:29:57.356Z,17.53
2018-06-13T21:32:26.548Z,17.54
2018-06-13T21:34:56.310Z,17.50
2018-06-13T21:37:25.354Z,17.52
2018-06-13T21:39:54.476Z,17.42
2018-06-13T21:42:24.276Z,17.50
2018-06-13T21:44:53.330Z,17.49
2018-06-13T21:47:22.368Z,17.48
2018-06-13T21:49:51.396Z,17.52
2018-06-13T21:52:20.432Z,17.50
2018-06-13T21:54:49.504Z,17.57
2018-06-13T21:57:18.585Z,17.61
2018-06-13T21:59:47.863Z,17.60
2018-06-13T22:02:17.153Z,17.66
2018-06-13T22:04:46.192Z,17.58
2018-06-13T22:07:15.337Z,17.57
2018-06-13T22:09:44.371Z,17.63
2018-06-13T22:12:13.905Z,17.61
2018-06-13T22:14:43.018Z,17.53
2018-06-13T22:17:12.077Z,17.49
2018-06-13T22:19:41.780Z,17.62
2018-06-13T22:22:10.805Z,17.58
2018-06-13T22:24:39.823Z,17.64
2018-06-13T22:27:08.832Z,17.61
2018-06-13T22:29:38.506Z,17.57
2018-06-13T22:32:08.457Z,17.54
2018-06-13T22:34:37.571Z,17.62
2018-06-13T22:37:06.806Z,17.62
2018-06-13T22:39:36.088Z,17.56
2018-06-13T22:42:05.373Z,17.53
2018-06-13T22:44:34.913Z,17.41
2018-06-13T22:47:03.934Z,17.49
2018-06-13T22:49:32.977Z,17.37
2018-06-13T22:52:02.059Z,17.31
2018-06-13T22:54:31.064Z,17.29
2018-06-13T22:57:00.109Z,17.35
2018-06-13T22:59:29.166Z,17.31
2018-06-13T23:01:58.295Z,17.30
2018-06-13T23:04:28.254Z,17.17
2018-06-13T23:06:57.261Z,17.23
2018-06-13T23:09:27.015Z,17.27
2018-06-13T23:11:56.020Z,17.24
2018-06-13T23:14:25.033Z,17.17
2018-06-13T23:16:54.083Z,17.16
2018-06-13T23:19:23.110Z,17.17
2018-06-13T23:21:53.021Z,17.16
2018-06-13T23:24:22.058Z,17.11
2018-06-13T23:26:51.205Z,17.07
2018-06-13T23:29:20.317Z,17.00
2018-06-13T23:31:49.307Z,17.02
2018-06-13T23:34:18.324Z,17.04
2018-06-13T23:36:47.686Z,17.08
2018-06-13T23:39:16.669Z,17.13
2018-06-13T23:41:45.693Z,17.00
2018-06-13T23:44:16.161Z,16.97
2018-06-13T23:46:45.553Z,16.95
2018-06-13T23:49:14.533Z,16.92
2018-06-13T23:51:43.517Z,17.00
2018-06-13T23:54:12.547Z,16.97
2018-06-13T23:56:41.577Z,17.04
2018-06-13T23:59:10.593Z,17.00
